Terminal Aerodrome Forecast
Issued by NWS

Current Version | Previous Version | Graphics & Text | Print | Product List | Glossary On
Versions: 1 2 3 4 5 6 7 8 9 10 11 12 13 14 15 16 17 18 19 20
000
FTUS41 KILN 221900 AAA
TAFLCK
TAF AMD
KLCK 221931Z 2220/2318 01010KT P6SM OVC022
      TEMPO 2220/2222 OVC018
     FM230000 01005KT P6SM BKN025
     FM230800 02004KT P6SM SCT025
     FM231300 33005KT P6SM SCT250=

USA.gov is the U.S. government's official web portal to all federal, state and local government web resources and services.